Time;durP1;ratioP1;P1;durP2;ratioP2;P2;SDS_P1;SDS_P2;PMS_P1;PMS_P2;Temp;Humidity;BMP_temperature;BMP_pressure;BME280_temperature;BME280_humidity;BME280_pressure;Samples;Min_cycle;Max_cycle;Signal;HPM_P1;HPM_P2
2022/12/23 00:01:25;;;;;;;22.10;12.75;;;7.60;99.90;;;;;;5055037;28;20392;-75
2022/12/23 00:03:51;;;;;;;21.48;13.30;;;7.70;99.90;;;;;;5040504;28;20037;-75
2022/12/23 00:06:19;;;;;;;22.25;11.88;;;7.70;99.90;;;;;;5051352;28;20033;-75
2022/12/23 00:08:45;;;;;;;23.60;13.05;;;7.70;99.90;;;;;;5041600;28;20096;-75
2022/12/23 00:11:14;;;;;;;23.92;13.07;;;7.70;99.90;;;;;;5037953;28;20498;-75
2022/12/23 00:16:25;;;;;;;19.58;11.88;;;7.70;99.90;;;;;;5035511;28;20042;-75
2022/12/23 00:18:52;;;;;;;24.20;13.20;;;7.70;99.90;;;;;;5045601;28;20045;-75
2022/12/23 00:21:18;;;;;;;18.98;12.13;;;7.70;99.90;;;;;;5039237;28;20058;-74
2022/12/23 00:23:46;;;;;;;21.83;12.90;;;7.70;99.90;;;;;;5037299;28;20037;-74
2022/12/23 00:26:21;;;;;;;21.08;12.77;;;7.70;99.90;;;;;;5037675;28;20118;-74
2022/12/23 00:28:46;;;;;;;19.85;11.90;;;7.70;99.90;;;;;;5040549;28;20041;-74
2022/12/23 00:31:13;;;;;;;21.02;12.02;;;7.70;99.90;;;;;;5045346;28;20555;-74
2022/12/23 00:33:41;;;;;;;20.83;12.25;;;7.70;99.90;;;;;;5035562;28;20105;-75
2022/12/23 00:36:12;;;;;;;26.42;14.07;;;7.70;99.90;;;;;;5043545;28;20045;-74
2022/12/23 00:44:07;;;;;;;22.80;13.43;;;7.70;99.90;;;;;;5037366;28;20038;-75
2022/12/23 00:46:32;;;;;;;25.23;13.00;;;7.70;99.90;;;;;;5034006;28;20448;-75
2022/12/23 00:51:42;;;;;;;23.42;13.23;;;7.70;99.90;;;;;;5048352;28;20090;-75
2022/12/23 00:54:08;;;;;;;19.90;11.52;;;7.70;99.90;;;;;;5036248;28;20120;-75
2022/12/23 00:56:34;;;;;;;21.95;12.43;;;7.70;99.90;;;;;;5042447;28;20383;-75
2022/12/23 00:59:00;;;;;;;22.23;11.98;;;7.70;99.90;;;;;;5035761;28;20087;-76
2022/12/23 01:06:56;;;;;;;26.63;13.93;;;7.60;99.90;;;;;;5044767;28;20448;-75
2022/12/23 01:09:22;;;;;;;25.15;13.95;;;7.70;99.90;;;;;;5040917;28;20037;-75
2022/12/23 01:11:47;;;;;;;28.00;14.15;;;7.60;99.90;;;;;;5049967;28;20048;-75
2022/12/23 01:14:14;;;;;;;25.92;14.68;;;7.60;99.90;;;;;;5052370;28;20033;-75
2022/12/23 01:16:40;;;;;;;28.38;14.85;;;7.60;99.90;;;;;;5035644;28;20059;-75
2022/12/23 01:19:06;;;;;;;26.52;13.73;;;7.60;99.90;;;;;;5048689;28;20049;-75
2022/12/23 01:21:33;;;;;;;28.15;13.95;;;7.60;99.90;;;;;;5037123;28;20052;-75
2022/12/23 01:23:59;;;;;;;25.85;14.68;;;7.60;99.90;;;;;;5046675;28;20041;-75
2022/12/23 01:26:24;;;;;;;26.50;14.05;;;7.60;99.90;;;;;;5040505;28;20041;-75
2022/12/23 01:28:54;;;;;;;26.20;14.07;;;7.60;99.90;;;;;;5045382;28;20054;-75
2022/12/23 01:31:21;;;;;;;25.15;13.75;;;7.70;99.90;;;;;;5037616;28;20045;-74
2022/12/23 01:33:47;;;;;;;25.67;14.30;;;7.70;99.90;;;;;;5043611;28;20388;-74
2022/12/23 01:36:13;;;;;;;26.23;14.02;;;7.70;99.90;;;;;;5043758;28;20068;-74
2022/12/23 01:38:39;;;;;;;23.63;13.75;;;7.70;99.90;;;;;;5050257;28;20052;-74
2022/12/23 01:41:05;;;;;;;24.38;13.20;;;7.70;99.90;;;;;;5036743;28;20097;-74
2022/12/23 01:43:50;;;;;;;27.73;14.20;;;7.70;99.90;;;;;;5037024;28;20049;-74
2022/12/23 01:46:16;;;;;;;22.73;13.30;;;7.70;99.90;;;;;;5035337;28;20393;-75
2022/12/23 01:48:50;;;;;;;26.05;13.75;;;7.70;99.90;;;;;;5037205;28;20049;-75
2022/12/23 01:51:27;;;;;;;22.60;13.20;;;7.70;99.90;;;;;;5044751;28;20079;-74
2022/12/23 01:54:00;;;;;;;22.23;12.75;;;7.70;99.90;;;;;;5029615;28;20076;-75
2022/12/23 01:56:34;;;;;;;26.15;13.40;;;7.70;99.90;;;;;;5047905;28;20045;-75
2022/12/23 01:59:08;;;;;;;25.17;13.75;;;7.70;99.90;;;;;;5040599;28;20065;-75
2022/12/23 02:04:23;;;;;;;37.70;15.00;;;7.60;99.90;;;;;;5034710;28;20037;-74
2022/12/23 02:09:37;;;;;;;24.45;13.43;;;7.70;99.90;;;;;;5039822;28;20038;-74
2022/12/23 02:12:28;;;;;;;29.25;13.93;;;7.70;99.90;;;;;;5048893;28;20044;-74
2022/12/23 02:18:12;;;;;;;22.13;13.13;;;7.70;99.90;;;;;;5048154;28;20048;-74
2022/12/23 02:21:05;;;;;;;29.45;13.85;;;7.70;99.90;;;;;;5028815;28;20124;-74
2022/12/23 02:23:36;;;;;;;22.52;12.63;;;7.70;99.90;;;;;;5039653;28;20201;-74
2022/12/23 02:26:11;;;;;;;23.60;12.55;;;7.70;99.90;;;;;;5039359;28;20053;-74
2022/12/23 02:29:05;;;;;;;24.75;13.40;;;7.70;99.90;;;;;;5039452;28;20077;-74
2022/12/23 02:32:03;;;;;;;20.20;12.30;;;7.70;99.90;;;;;;5050070;28;20050;-74
2022/12/23 02:34:35;;;;;;;23.58;11.90;;;7.70;99.90;;;;;;5039831;28;20056;-74
2022/12/23 02:37:07;;;;;;;21.60;12.32;;;7.70;99.90;;;;;;5047313;28;20049;-74
2022/12/23 02:39:38;;;;;;;22.40;12.73;;;7.70;99.90;;;;;;5040418;28;20076;-74
2022/12/23 02:42:41;;;;;;;20.20;11.32;;;7.70;99.90;;;;;;5038061;28;20041;-74
2022/12/23 02:45:14;;;;;;;19.77;10.85;;;7.60;99.90;;;;;;5039213;28;20065;-75
2022/12/23 02:47:47;;;;;;;24.02;12.45;;;7.60;99.90;;;;;;5039485;28;20077;-74
2022/12/23 02:50:27;;;;;;;25.05;12.88;;;7.60;99.90;;;;;;5049548;28;20042;-74
2022/12/23 02:52:56;;;;;;;40.28;13.27;;;7.60;99.90;;;;;;5055172;28;20048;-73
2022/12/23 02:55:26;;;;;;;23.35;12.30;;;7.60;99.90;;;;;;5039729;28;20092;-73
2022/12/23 02:57:54;;;;;;;23.15;11.90;;;7.50;99.90;;;;;;5038372;28;20056;-73
2022/12/23 03:00:21;;;;;;;18.42;10.77;;;7.50;99.90;;;;;;5042935;28;20056;-73
2022/12/23 03:02:47;;;;;;;18.27;10.90;;;7.50;99.90;;;;;;5070793;28;20120;-73
2022/12/23 03:05:43;;;;;;;20.58;11.60;;;7.50;99.90;;;;;;5040030;28;20092;-73
2022/12/23 03:08:17;;;;;;;21.48;10.95;;;7.50;99.90;;;;;;5028784;28;20057;-74
2022/12/23 03:11:06;;;;;;;20.45;11.20;;;7.40;99.90;;;;;;5053223;28;20103;-73
2022/12/23 03:13:49;;;;;;;20.90;10.93;;;7.40;99.90;;;;;;5050121;28;20132;-73
2022/12/23 03:16:26;;;;;;;20.05;11.07;;;7.40;99.90;;;;;;5036564;28;20041;-74
2022/12/23 03:18:55;;;;;;;20.55;10.48;;;7.40;99.90;;;;;;5039987;28;20057;-75
2022/12/23 03:21:53;;;;;;;19.02;10.80;;;7.40;99.90;;;;;;5038343;28;20116;-74
2022/12/23 03:24:46;;;;;;;18.50;9.35;;;7.50;99.90;;;;;;5055323;28;20128;-74
2022/12/23 03:27:39;;;;;;;16.55;9.40;;;7.50;99.90;;;;;;5052458;28;20069;-73
2022/12/23 03:30:13;;;;;;;18.48;9.55;;;7.50;99.90;;;;;;5039308;28;20417;-74
2022/12/23 03:32:55;;;;;;;20.35;10.27;;;7.50;99.90;;;;;;5048633;28;20041;-74
2022/12/23 03:35:42;;;;;;;19.15;9.90;;;7.50;99.90;;;;;;5039755;28;20343;-74
2022/12/23 03:38:10;;;;;;;;;;;7.50;99.90;;;;;;5058977;28;20061;-74
2022/12/23 03:40:41;;;;;;;17.98;8.75;;;7.50;99.90;;;;;;5049928;28;19925;-74
2022/12/23 03:43:15;;;;;;;17.33;9.13;;;7.50;99.90;;;;;;5037720;28;20049;-74
2022/12/23 03:45:49;;;;;;;17.63;8.77;;;7.50;99.90;;;;;;5037699;28;20045;-74
2022/12/23 03:48:34;;;;;;;17.38;9.18;;;7.50;99.90;;;;;;5047955;28;20519;-72
2022/12/23 03:51:10;;;;;;;18.77;9.25;;;7.50;99.90;;;;;;5037449;28;20053;-74
2022/12/23 03:53:43;;;;;;;14.75;8.23;;;7.50;99.90;;;;;;5026014;28;20598;-73
2022/12/23 03:56:16;;;;;;;15.00;8.32;;;7.50;99.90;;;;;;5045144;28;20044;-73
2022/12/23 03:59:05;;;;;;;14.80;7.53;;;7.50;99.90;;;;;;5039051;28;20041;-74
2022/12/23 04:02:05;;;;;;;14.30;7.20;;;7.50;99.90;;;;;;5039031;28;20413;-74
2022/12/23 04:05:18;;;;;;;16.08;7.60;;;7.50;99.90;;;;;;5037661;28;20049;-74
2022/12/23 04:07:53;;;;;;;15.32;9.05;;;7.50;99.90;;;;;;5017807;28;20057;-74
2022/12/23 04:10:21;;;;;;;16.38;7.75;;;7.50;99.90;;;;;;5051756;28;20072;-74
2022/12/23 04:12:47;;;;;;;17.52;7.50;;;7.50;99.90;;;;;;5049172;28;20078;-74
2022/12/23 04:15:18;;;;;;;17.33;7.93;;;7.50;99.90;;;;;;5044329;28;20107;-74
2022/12/23 04:17:44;;;;;;;17.02;8.93;;;7.50;99.90;;;;;;5038320;28;20126;-75
2022/12/23 04:20:10;;;;;;;18.90;8.55;;;7.50;99.90;;;;;;5036497;28;20093;-74
2022/12/23 04:22:35;;;;;;;20.33;9.45;;;7.50;99.90;;;;;;5040527;28;20049;-74
2022/12/23 04:25:01;;;;;;;17.17;7.60;;;7.10;99.90;;;;;;5055149;28;20052;-74
2022/12/23 04:27:27;;;;;;;17.38;8.68;;;7.50;99.90;;;;;;5038489;28;20052;-74
2022/12/23 04:29:53;;;;;;;17.45;8.80;;;7.50;99.90;;;;;;5037789;28;20048;-74
2022/12/23 04:32:18;;;;;;;16.00;7.80;;;7.60;99.90;;;;;;5039092;28;20050;-74
2022/12/23 04:34:44;;;;;;;20.30;9.50;;;7.60;99.90;;;;;;5048099;28;20045;-74
2022/12/23 04:37:10;;;;;;;18.02;8.15;;;7.50;99.90;;;;;;5036534;28;20042;-74
2022/12/23 04:39:35;;;;;;;19.85;8.57;;;7.50;99.90;;;;;;5037120;28;20424;-74
2022/12/23 04:42:01;;;;;;;20.17;8.60;;;7.60;99.90;;;;;;5036083;28;20544;-74
2022/12/23 04:44:27;;;;;;;17.30;8.20;;;7.60;99.90;;;;;;5037628;28;20158;-74
2022/12/23 04:46:52;;;;;;;17.25;8.57;;;7.60;99.90;;;;;;5036507;28;20049;-74
2022/12/23 04:49:18;;;;;;;18.08;8.48;;;7.60;99.90;;;;;;5036758;28;20049;-74
2022/12/23 04:51:44;;;;;;;17.63;8.30;;;7.60;99.90;;;;;;5047085;28;20046;-74
2022/12/23 04:54:09;;;;;;;19.95;10.27;;;7.50;99.90;;;;;;5039816;28;20124;-74
2022/12/23 04:56:35;;;;;;;18.52;7.78;;;7.50;99.90;;;;;;5038147;28;20109;-74
2022/12/23 04:59:03;;;;;;;17.70;8.13;;;7.50;99.90;;;;;;5050081;28;20041;-74
2022/12/23 05:01:28;;;;;;;19.17;9.45;;;7.50;99.90;;;;;;5053677;28;20048;-73
2022/12/23 05:03:54;;;;;;;16.83;8.25;;;7.50;99.90;;;;;;5035678;28;20041;-73
2022/12/23 05:06:20;;;;;;;17.65;8.30;;;7.50;99.90;;;;;;5035458;28;20049;-73
2022/12/23 05:08:46;;;;;;;24.05;9.73;;;7.50;99.90;;;;;;5045580;28;20063;-73
2022/12/23 05:11:11;;;;;;;19.10;8.60;;;7.40;99.90;;;;;;5056540;28;20036;-73
2022/12/23 05:13:37;;;;;;;19.55;8.80;;;7.40;99.90;;;;;;5048578;28;20048;-72
2022/12/23 05:16:03;;;;;;;27.65;9.52;;;7.40;99.90;;;;;;5042004;28;20097;-72
2022/12/23 05:18:28;;;;;;;25.33;8.50;;;7.40;99.90;;;;;;5039590;28;20048;-73
2022/12/23 05:20:54;;;;;;;32.03;9.77;;;7.40;99.90;;;;;;5041368;28;20667;-72
2022/12/23 05:23:20;;;;;;;29.67;9.10;;;7.30;99.90;;;;;;5037043;28;20133;-72
2022/12/23 05:25:51;;;;;;;30.85;9.18;;;7.30;99.90;;;;;;5039939;28;20106;-72
2022/12/23 05:28:17;;;;;;;27.15;9.43;;;7.30;99.90;;;;;;5036768;28;20045;-72
2022/12/23 05:30:43;;;;;;;16.95;7.47;;;7.20;99.90;;;;;;5037236;28;20048;-72
2022/12/23 05:33:09;;;;;;;17.25;7.63;;;7.30;99.90;;;;;;5035688;28;20044;-72
2022/12/23 05:35:34;;;;;;;27.48;8.68;;;7.30;99.90;;;;;;5050032;28;20042;-72
2022/12/23 05:38:02;;;;;;;15.85;7.00;;;7.30;99.90;;;;;;5035439;28;20046;-73
2022/12/23 05:40:31;;;;;;;14.57;6.88;;;7.20;99.90;;;;;;5048189;28;20092;-73
2022/12/23 05:42:56;;;;;;;19.35;7.60;;;7.20;99.90;;;;;;5027137;28;20041;-73
2022/12/23 05:45:22;;;;;;;14.95;6.53;;;7.20;99.90;;;;;;5036677;28;20044;-73
2022/12/23 05:47:48;;;;;;;18.55;7.15;;;7.20;99.90;;;;;;5043895;28;20131;-72
2022/12/23 05:50:14;;;;;;;32.22;9.32;;;7.20;99.90;;;;;;5039199;28;20042;-74
2022/12/23 05:52:39;;;;;;;32.40;7.82;;;7.20;99.90;;;;;;5031396;28;20058;-73
2022/12/23 05:55:06;;;;;;;20.27;8.07;;;7.20;99.90;;;;;;5037741;28;20041;-73
2022/12/23 05:57:31;;;;;;;29.73;8.82;;;7.20;99.90;;;;;;5046778;28;20034;-74
2022/12/23 05:59:57;;;;;;;22.67;7.43;;;7.20;99.90;;;;;;5055012;28;20052;-73
2022/12/23 06:02:23;;;;;;;25.85;7.78;;;7.20;99.90;;;;;;5049889;28;20053;-74
2022/12/23 06:04:49;;;;;;;29.63;9.23;;;7.20;99.90;;;;;;5043172;28;20056;-74
2022/12/23 06:07:15;;;;;;;41.47;8.43;;;7.20;99.90;;;;;;5046021;28;20124;-74
2022/12/23 06:09:41;;;;;;;47.92;9.57;;;7.20;99.90;;;;;;5045842;28;20428;-73
2022/12/23 06:12:07;;;;;;;40.75;9.30;;;7.20;99.90;;;;;;5047347;28;20046;-73
2022/12/23 06:14:32;;;;;;;54.45;10.63;;;7.20;99.90;;;;;;5040829;28;20091;-73
2022/12/23 06:16:58;;;;;;;55.63;11.07;;;7.10;99.90;;;;;;5038773;28;20083;-74
2022/12/23 06:19:25;;;;;;;38.45;9.45;;;7.10;99.90;;;;;;5047768;28;20084;-73
2022/12/23 06:21:50;;;;;;;45.05;9.48;;;7.10;99.90;;;;;;5050463;28;20069;-73
2022/12/23 06:24:16;;;;;;;50.30;10.50;;;7.10;99.90;;;;;;5039387;28;20534;-73
2022/12/23 06:26:42;;;;;;;53.42;9.45;;;7.10;99.90;;;;;;5056684;28;20045;-73
2022/12/23 06:29:07;;;;;;;41.13;9.30;;;7.10;99.90;;;;;;5057202;28;20045;-73
2022/12/23 06:31:33;;;;;;;35.33;9.38;;;7.10;99.90;;;;;;5047731;28;20101;-73
2022/12/23 06:33:59;;;;;;;38.20;8.90;;;7.10;99.90;;;;;;5038774;28;20056;-72
2022/12/23 06:36:24;;;;;;;31.02;8.02;;;7.10;99.90;;;;;;5064273;28;20074;-73
2022/12/23 06:38:50;;;;;;;22.77;7.53;;;7.00;99.90;;;;;;5038225;28;20045;-73
2022/12/23 06:41:16;;;;;;;28.92;7.97;;;7.00;99.90;;;;;;5050041;28;20929;-73
2022/12/23 06:43:41;;;;;;;37.17;9.75;;;7.00;99.90;;;;;;5037181;28;20049;-73
2022/12/23 06:46:07;;;;;;;41.65;10.50;;;7.00;99.90;;;;;;5053600;28;20108;-73
2022/12/23 06:48:33;;;;;;;67.60;10.52;;;6.90;99.90;;;;;;5040306;28;20100;-73
2022/12/23 06:50:58;;;;;;;60.08;10.93;;;6.90;99.90;;;;;;5047643;28;20140;-73
2022/12/23 06:53:24;;;;;;;54.40;10.52;;;6.90;99.90;;;;;;5058586;28;20044;-73
2022/12/23 06:55:58;;;;;;;60.55;11.45;;;6.90;99.90;;;;;;5038786;28;20041;-72
2022/12/23 06:58:24;;;;;;;20.58;7.47;;;6.90;99.90;;;;;;5038914;28;20058;-72
2022/12/23 07:00:50;;;;;;;26.02;8.20;;;6.90;99.90;;;;;;5046774;28;20041;-72
2022/12/23 07:03:15;;;;;;;24.65;8.02;;;6.90;99.90;;;;;;5038136;28;20045;-72
2022/12/23 07:05:41;;;;;;;20.20;8.68;;;6.90;99.90;;;;;;5039556;28;20067;-72
2022/12/23 07:08:07;;;;;;;20.38;8.18;;;6.90;99.90;;;;;;5038038;28;20046;-72
2022/12/23 07:10:33;;;;;;;21.58;7.90;;;6.90;99.90;;;;;;5039059;28;20480;-72
2022/12/23 07:13:00;;;;;;;30.40;8.60;;;6.90;99.90;;;;;;5068865;28;20085;-72
2022/12/23 07:15:26;;;;;;;56.28;11.70;;;6.90;99.90;;;;;;5048266;28;20083;-73
2022/12/23 07:17:53;;;;;;;80.32;12.02;;;6.80;99.90;;;;;;5044837;28;20509;-72
2022/12/23 07:20:19;;;;;;;52.80;11.32;;;6.80;99.90;;;;;;5037709;28;20066;-72
2022/12/23 07:22:45;;;;;;;77.03;12.38;;;6.80;99.90;;;;;;5061849;28;20042;-72
2022/12/23 07:25:10;;;;;;;70.18;11.68;;;6.80;99.90;;;;;;5039332;28;20045;-72
2022/12/23 07:27:36;;;;;;;88.00;12.82;;;6.70;99.90;;;;;;5047046;28;20068;-72
2022/12/23 07:30:02;;;;;;;94.25;14.15;;;6.70;99.90;;;;;;5047247;28;20025;-72
2022/12/23 07:32:28;;;;;;;63.63;10.50;;;6.70;99.90;;;;;;5056619;28;20037;-72
2022/12/23 07:34:54;;;;;;;97.72;14.60;;;6.70;99.90;;;;;;5039023;28;20048;-72
2022/12/23 07:37:19;;;;;;;77.47;12.77;;;6.70;99.90;;;;;;5059239;28;20132;-72
2022/12/23 07:39:45;;;;;;;68.43;11.38;;;6.70;99.90;;;;;;5031695;28;20076;-72
2022/12/23 07:42:11;;;;;;;57.92;11.45;;;6.70;99.90;;;;;;5037058;28;20041;-72
2022/12/23 07:44:37;;;;;;;56.00;10.77;;;6.60;99.90;;;;;;5047387;28;20096;-72
2022/12/23 07:47:03;;;;;;;59.05;11.20;;;6.70;99.90;;;;;;5035639;28;20079;-72
2022/12/23 07:49:28;;;;;;;39.38;9.40;;;6.70;99.90;;;;;;5044609;28;20044;-72
2022/12/23 07:51:54;;;;;;;60.17;10.52;;;6.70;99.90;;;;;;5053833;28;20075;-72
2022/12/23 07:54:20;;;;;;;62.60;11.13;;;6.70;99.90;;;;;;5061104;28;20049;-72
2022/12/23 07:56:45;;;;;;;68.15;11.70;;;6.80;99.90;;;;;;5043070;28;20049;-72
2022/12/23 07:59:11;;;;;;;49.67;10.80;;;6.70;99.90;;;;;;5035320;28;20723;-72
2022/12/23 08:01:37;;;;;;;47.33;9.90;;;6.70;99.90;;;;;;5037786;28;20046;-72
2022/12/23 08:04:03;;;;;;;39.70;9.93;;;6.70;99.90;;;;;;5062887;28;20030;-72
2022/12/23 08:06:28;;;;;;;44.17;8.38;;;6.70;99.90;;;;;;5025859;28;20041;-72
2022/12/23 08:08:54;;;;;;;55.42;9.75;;;6.70;99.90;;;;;;5037775;28;20048;-72
2022/12/23 08:11:20;;;;;;;41.85;8.88;;;6.70;99.90;;;;;;5021285;28;20049;-72
2022/12/23 08:13:47;;;;;;;46.13;9.60;;;6.40;99.90;;;;;;5035973;28;20041;-72
2022/12/23 08:16:13;;;;;;;44.88;9.48;;;6.70;99.90;;;;;;5024851;28;20068;-72
2022/12/23 08:18:40;;;;;;;41.88;10.18;;;6.80;99.90;;;;;;5070183;28;20045;-73
2022/12/23 08:21:10;;;;;;;42.50;9.38;;;6.80;99.90;;;;;;5030346;28;20145;-72
2022/12/23 08:23:36;;;;;;;28.13;8.00;;;6.80;99.90;;;;;;5019969;28;20049;-73
2022/12/23 08:26:04;;;;;;;37.20;8.27;;;6.80;99.90;;;;;;5017106;28;20045;-73
2022/12/23 08:28:31;;;;;;;36.83;8.30;;;6.80;99.90;;;;;;5025771;28;20056;-72
2022/12/23 08:31:12;;;;;;;42.28;9.07;;;6.80;99.90;;;;;;5029527;28;20467;-72
2022/12/23 08:33:39;;;;;;;38.47;9.10;;;6.80;99.90;;;;;;5024569;28;20057;-72
2022/12/23 08:36:07;;;;;;;25.80;7.30;;;6.80;99.90;;;;;;5024221;28;20073;-73
2022/12/23 08:38:34;;;;;;;38.97;8.70;;;6.80;99.90;;;;;;5024522;28;20425;-73
2022/12/23 08:40:59;;;;;;;24.35;7.15;;;6.80;99.90;;;;;;5051838;28;20260;-73
2022/12/23 08:43:25;;;;;;;27.90;7.43;;;6.80;99.90;;;;;;5036512;28;20663;-72
2022/12/23 08:45:51;;;;;;;24.17;7.93;;;6.80;99.90;;;;;;5032860;28;20030;-72
2022/12/23 08:48:17;;;;;;;48.90;9.93;;;6.80;99.90;;;;;;5024190;28;20412;-72
2022/12/23 08:50:45;;;;;;;41.17;9.52;;;6.80;99.90;;;;;;5025180;28;20117;-71
2022/12/23 08:53:11;;;;;;;34.03;8.57;;;6.80;99.90;;;;;;5031634;28;20084;-72
2022/12/23 08:55:39;;;;;;;27.98;7.78;;;6.80;99.90;;;;;;5027315;28;20038;-72
2022/12/23 08:58:07;;;;;;;34.53;7.65;;;6.80;99.90;;;;;;5048502;28;20045;-72
2022/12/23 09:00:34;;;;;;;21.60;7.13;;;6.80;99.90;;;;;;5029341;28;20128;-72
2022/12/23 09:03:00;;;;;;;34.67;7.28;;;6.80;99.90;;;;;;5025989;28;20050;-72
2022/12/23 09:05:25;;;;;;;28.75;8.23;;;6.80;99.90;;;;;;5053262;28;20041;-72
2022/12/23 09:07:51;;;;;;;25.15;7.03;;;6.80;99.90;;;;;;5066822;28;20046;-71
2022/12/23 09:10:17;;;;;;;35.75;7.97;;;6.80;99.90;;;;;;5021059;28;20097;-72
2022/12/23 09:12:43;;;;;;;31.52;7.30;;;6.80;99.90;;;;;;5023994;28;20046;-72
2022/12/23 09:15:09;;;;;;;24.60;7.70;;;6.80;99.90;;;;;;5033664;28;20110;-72
2022/12/23 09:17:35;;;;;;;19.90;6.85;;;6.90;99.90;;;;;;5028590;28;20110;-73
2022/12/23 09:20:00;;;;;;;33.25;7.97;;;6.90;99.90;;;;;;5034037;28;20042;-73
2022/12/23 09:22:26;;;;;;;34.00;8.35;;;6.90;99.90;;;;;;5029199;28;20046;-73
2022/12/23 09:24:52;;;;;;;37.20;8.80;;;6.90;99.90;;;;;;5027168;28;20034;-72
2022/12/23 09:27:18;;;;;;;16.20;6.00;;;6.90;99.90;;;;;;5023171;28;20037;-73
2022/12/23 09:29:43;;;;;;;16.63;7.22;;;6.90;99.90;;;;;;5028343;28;20073;-73
2022/12/23 09:32:09;;;;;;;14.48;6.03;;;7.00;99.90;;;;;;5033697;28;20148;-73
2022/12/23 09:34:34;;;;;;;18.58;6.68;;;7.00;99.90;;;;;;5048912;28;20043;-73
2022/12/23 09:37:02;;;;;;;13.32;6.30;;;7.00;99.90;;;;;;5029469;28;20072;-73
2022/12/23 09:39:27;;;;;;;22.42;6.30;;;7.00;99.90;;;;;;5032145;28;20553;-73
2022/12/23 09:42:05;;;;;;;14.07;5.78;;;7.10;99.90;;;;;;5028791;28;20079;-73
2022/12/23 09:44:43;;;;;;;12.20;5.63;;;7.10;99.90;;;;;;5027378;28;20088;-74
2022/12/23 09:47:20;;;;;;;13.38;6.25;;;7.10;99.90;;;;;;5024520;28;20073;-73
2022/12/23 09:49:52;;;;;;;17.13;6.45;;;7.20;99.90;;;;;;5036867;28;20053;-73
2022/12/23 09:52:44;;;;;;;16.17;6.65;;;7.20;99.90;;;;;;5041256;28;20045;-73
2022/12/23 09:55:11;;;;;;;17.38;5.97;;;7.20;99.90;;;;;;5003819;28;20108;-73
2022/12/23 09:57:49;;;;;;;17.95;6.68;;;7.30;99.90;;;;;;5034475;28;20038;-74
2022/12/23 10:00:18;;;;;;;10.60;5.82;;;7.30;99.90;;;;;;5045062;28;20124;-73
2022/12/23 10:03:12;;;;;;;12.73;5.80;;;7.30;99.90;;;;;;5026561;28;20086;-73
2022/12/23 10:05:41;;;;;;;11.65;5.55;;;7.30;99.90;;;;;;5031349;28;20045;-73
2022/12/23 10:08:11;;;;;;;12.05;6.55;;;7.40;99.90;;;;;;5034101;28;20056;-73
2022/12/23 10:10:48;;;;;;;13.75;7.03;;;7.40;99.90;;;;;;5030688;28;20079;-74
2022/12/23 10:13:34;;;;;;;16.15;7.32;;;7.30;99.90;;;;;;5030294;28;20048;-74
2022/12/23 10:16:10;;;;;;;14.80;8.02;;;7.40;99.90;;;;;;5034186;28;20049;-73
2022/12/23 10:18:42;;;;;;;11.98;6.55;;;7.40;99.90;;;;;;5034909;28;20085;-73
2022/12/23 10:21:46;;;;;;;12.77;6.20;;;7.40;99.90;;;;;;5025332;28;20042;-74
2022/12/23 10:24:24;;;;;;;9.57;5.28;;;7.40;99.90;;;;;;4959453;28;20131;-74
2022/12/23 10:27:01;;;;;;;10.77;5.13;;;7.50;99.90;;;;;;5034520;28;20139;-73
2022/12/23 10:29:31;;;;;;;9.57;5.30;;;7.50;99.90;;;;;;5027595;28;20054;-73
2022/12/23 10:32:16;;;;;;;11.88;6.28;;;7.50;99.90;;;;;;5026493;28;20077;-73
2022/12/23 10:34:52;;;;;;;10.73;5.45;;;7.50;99.90;;;;;;5053917;28;20050;-73
2022/12/23 10:37:36;;;;;;;12.93;5.65;;;7.50;99.90;;;;;;5031112;28;20052;-74
2022/12/23 10:40:24;;;;;;;10.60;5.65;;;7.60;99.90;;;;;;5041896;28;20053;-73
2022/12/23 10:42:55;;;;;;;11.98;5.80;;;7.60;99.90;;;;;;5038503;28;20084;-73
2022/12/23 10:45:39;;;;;;;15.32;6.53;;;7.60;99.90;;;;;;5039099;28;20056;-74
2022/12/23 10:48:18;;;;;;;15.00;6.68;;;7.60;99.90;;;;;;5040630;28;20050;-73
2022/12/23 10:50:59;;;;;;;13.43;6.93;;;7.60;99.90;;;;;;5069759;28;20286;-73
2022/12/23 10:53:42;;;;;;;13.40;6.63;;;7.60;99.90;;;;;;5039774;28;20104;-74
2022/12/23 10:56:08;;;;;;;14.35;7.07;;;7.60;99.90;;;;;;5071764;28;20057;-73
2022/12/23 10:58:41;;;;;;;17.98;8.40;;;7.60;99.90;;;;;;5037833;28;20052;-73
2022/12/23 11:01:07;;;;;;;15.50;7.03;;;7.70;99.90;;;;;;5040555;28;20207;-74
2022/12/23 11:03:39;;;;;;;17.08;8.10;;;7.70;99.90;;;;;;5037589;28;20045;-73
2022/12/23 11:06:07;;;;;;;15.43;7.22;;;7.70;99.90;;;;;;5039462;28;20049;-74
2022/12/23 11:08:35;;;;;;;14.68;6.80;;;7.70;99.90;;;;;;5038575;28;20042;-74
2022/12/23 11:11:01;;;;;;;16.05;6.85;;;7.70;99.90;;;;;;5038808;28;20094;-73
2022/12/23 11:13:39;;;;;;;12.98;6.30;;;7.80;99.90;;;;;;5038875;28;20060;-73
2022/12/23 11:16:24;;;;;;;12.73;6.82;;;7.80;99.90;;;;;;5037465;28;20045;-74
2022/12/23 11:19:05;;;;;;;14.60;6.25;;;7.80;99.90;;;;;;5039751;28;20076;-73
2022/12/23 11:21:32;;;;;;;12.23;6.30;;;7.80;99.90;;;;;;5037947;28;20052;-74
2022/12/23 11:24:16;;;;;;;13.10;6.45;;;7.80;99.90;;;;;;5038008;28;20323;-74
2022/12/23 11:26:49;;;;;;;14.52;7.82;;;7.90;99.90;;;;;;5038137;28;20132;-74
2022/12/23 11:29:22;;;;;;;15.93;8.02;;;7.90;99.90;;;;;;5036897;28;20053;-74
2022/12/23 11:31:49;;;;;;;19.02;8.25;;;7.90;99.90;;;;;;5038898;28;20105;-75
2022/12/23 11:34:20;;;;;;;17.95;8.90;;;7.90;99.90;;;;;;5036221;28;20041;-74
2022/12/23 11:36:59;;;;;;;13.05;6.65;;;7.90;99.90;;;;;;5038147;28;20049;-74
2022/12/23 11:39:28;;;;;;;15.75;8.15;;;7.90;99.90;;;;;;5039352;28;20044;-74
2022/12/23 11:42:11;;;;;;;15.50;6.95;;;7.90;99.90;;;;;;5036450;28;20045;-74
2022/12/23 11:44:39;;;;;;;16.42;7.88;;;7.90;99.90;;;;;;5038919;28;20042;-74
2022/12/23 11:47:31;;;;;;;13.85;7.00;;;7.90;99.90;;;;;;5036041;28;20056;-74
2022/12/23 11:50:00;;;;;;;14.73;6.60;;;7.90;99.90;;;;;;5035604;28;20057;-74
2022/12/23 11:52:31;;;;;;;14.73;6.95;;;7.90;99.90;;;;;;5038596;28;20060;-74
2022/12/23 11:54:59;;;;;;;13.40;6.72;;;7.90;99.90;;;;;;5035978;28;20045;-74
2022/12/23 11:57:42;;;;;;;17.38;7.25;;;7.90;99.90;;;;;;5038706;28;20394;-75
2022/12/23 12:00:22;;;;;;;16.10;7.10;;;7.90;99.90;;;;;;5037822;28;20045;-74
2022/12/23 12:02:51;;;;;;;13.20;6.47;;;7.90;99.90;;;;;;5037021;28;20072;-74
2022/12/23 12:05:21;;;;;;;10.00;5.97;;;7.90;99.90;;;;;;5038890;28;20049;-74
2022/12/23 12:07:49;;;;;;;11.02;6.18;;;7.90;99.90;;;;;;5036289;28;20103;-74
2022/12/23 12:10:24;;;;;;;12.02;5.93;;;7.90;99.90;;;;;;5037298;28;20037;-74
2022/12/23 12:12:59;;;;;;;11.70;5.50;;;7.90;99.90;;;;;;5036539;28;20089;-74
2022/12/23 12:15:48;;;;;;;13.25;5.70;;;7.90;99.90;;;;;;5036601;28;20053;-75
2022/12/23 12:18:17;;;;;;;10.68;5.43;;;7.90;99.90;;;;;;5038691;28;20050;-76
2022/12/23 12:20:52;;;;;;;13.35;9.65;;;7.90;99.90;;;;;;5035445;28;20105;-75
2022/12/23 12:23:28;;;;;;;10.38;5.30;;;7.90;99.90;;;;;;5036959;28;20448;-75
2022/12/23 12:26:00;;;;;;;12.82;6.28;;;7.90;99.90;;;;;;5036422;28;20120;-74
2022/12/23 12:28:37;;;;;;;11.43;5.40;;;7.90;99.90;;;;;;5035913;28;20481;-75
2022/12/23 12:31:31;;;;;;;10.82;5.78;;;7.90;99.90;;;;;;5036591;28;20051;-75
2022/12/23 12:34:08;;;;;;;11.65;5.97;;;7.90;99.90;;;;;;5036524;28;20057;-74
2022/12/23 12:36:49;;;;;;;11.38;5.80;;;7.80;99.90;;;;;;5036829;28;20041;-74
2022/12/23 12:39:30;;;;;;;12.07;6.13;;;7.90;99.90;;;;;;5038212;28;20097;-74
2022/12/23 12:42:01;;;;;;;11.60;5.85;;;7.80;99.90;;;;;;5067047;28;20110;-74
2022/12/23 12:44:41;;;;;;;12.15;6.05;;;7.80;99.90;;;;;;5037665;28;20053;-74
2022/12/23 12:47:30;;;;;;;12.30;6.07;;;7.80;99.90;;;;;;5051487;28;20409;-74
2022/12/23 12:50:01;;;;;;;10.52;5.65;;;7.80;99.90;;;;;;5035868;28;20068;-74
2022/12/23 12:52:30;;;;;;;11.82;6.28;;;7.80;99.90;;;;;;5037918;28;20050;-74
2022/12/23 12:55:00;;;;;;;12.48;5.68;;;7.90;99.90;;;;;;5034898;28;20050;-75
2022/12/23 12:57:26;;;;;;;11.32;6.18;;;7.80;99.90;;;;;;5037556;28;20048;-75
2022/12/23 12:59:57;;;;;;;9.55;5.57;;;7.90;99.90;;;;;;5034511;28;20049;-74
2022/12/23 13:02:26;;;;;;;12.45;6.00;;;7.90;99.90;;;;;;5036710;28;20060;-75
2022/12/23 13:04:51;;;;;;;11.68;5.95;;;7.90;99.90;;;;;;5036199;28;20045;-74
2022/12/23 13:07:30;;;;;;;13.13;5.88;;;7.90;99.90;;;;;;5035340;28;20060;-76
2022/12/23 13:09:59;;;;;;;11.13;5.85;;;7.90;99.90;;;;;;5037480;28;20455;-74
2022/12/23 13:12:37;;;;;;;11.98;5.72;;;7.80;99.90;;;;;;5035417;28;20052;-75
2022/12/23 13:15:18;;;;;;;9.93;5.53;;;7.80;99.90;;;;;;5051571;28;20120;-75
2022/12/23 13:18:04;;;;;;;10.75;5.35;;;7.90;99.90;;;;;;5055432;28;20048;-75
2022/12/23 13:21:02;;;;;;;13.43;5.73;;;7.90;99.90;;;;;;5054845;28;20070;-75
2022/12/23 13:23:52;;;;;;;12.35;5.93;;;7.90;99.90;;;;;;5056638;28;20446;-74
2022/12/23 13:26:26;;;;;;;10.48;5.70;;;7.80;99.90;;;;;;5041179;28;20124;-75
2022/12/23 13:29:33;;;;;;;12.70;6.50;;;7.80;99.90;;;;;;5035149;28;20105;-75